Time;durP1;ratioP1;P1;durP2;ratioP2;P2;SDS_P1;SDS_P2;PMS_P1;PMS_P2;Temp;Humidity;BMP_temperature;BMP_pressure;BME280_temperature;BME280_humidity;BME280_pressure;Samples;Min_cycle;Max_cycle;Signal;HPM_P1;HPM_P2
2022/06/27 00:00:19;;;;;;;6.62;4.50;;;;;;;28.47;73.51;100774.38;1753387;82;21035;-69
2022/06/27 00:02:46;;;;;;;7.10;4.65;;;;;;;28.41;73.75;100785.69;1751104;82;21051;-69
2022/06/27 00:05:13;;;;;;;8.73;4.60;;;;;;;28.24;74.35;100785.47;1753093;81;21043;-69
2022/06/27 00:07:41;;;;;;;6.22;4.83;;;;;;;27.98;75.60;100793.24;1751526;82;21492;-69
2022/06/27 00:10:10;;;;;;;6.05;4.67;;;;;;;28.15;75.28;100786.04;1743537;82;21022;-69
2022/06/27 00:12:40;;;;;;;6.58;4.92;;;;;;;28.12;76.14;100787.22;1750801;82;21102;-69
2022/06/27 00:15:10;;;;;;;6.65;5.28;;;;;;;27.73;77.41;100792.03;1748118;82;21032;-69
2022/06/27 00:17:39;;;;;;;6.62;5.05;;;;;;;27.82;78.55;100786.22;1753091;81;20992;-69
2022/06/27 00:20:08;;;;;;;7.87;5.00;;;;;;;27.65;79.73;100784.64;1753677;82;20987;-69
2022/06/27 00:22:37;;;;;;;7.17;5.30;;;;;;;27.62;80.33;100779.72;1750395;82;21515;-69
2022/06/27 00:25:07;;;;;;;6.20;5.60;;;;;;;27.96;79.31;100780.69;1748918;82;21036;-69
2022/06/27 00:27:34;;;;;;;9.20;5.25;;;;;;;27.51;80.97;100792.29;1746266;81;21063;-69
2022/06/27 00:30:02;;;;;;;13.28;5.22;;;;;;;27.53;81.17;100794.77;1737572;82;21008;-69
2022/06/27 00:32:29;;;;;;;5.85;5.22;;;;;;;27.50;81.89;100789.34;1752500;82;20999;-69
2022/06/27 00:34:57;;;;;;;5.85;5.33;;;;;;;27.55;81.68;100793.59;1753564;82;21043;-69
2022/06/27 00:37:24;;;;;;;5.55;5.00;;;;;;;27.78;81.61;100787.56;1750592;82;21007;-69
2022/06/27 00:39:52;;;;;;;6.83;5.10;;;;;;;27.62;82.31;100783.69;1744085;81;21090;-69
2022/06/27 00:42:19;;;;;;;8.03;5.53;;;;;;;27.89;81.57;100794.30;1749375;81;21024;-69
2022/06/27 00:44:49;;;;;;;5.87;5.35;;;;;;;27.59;82.45;100786.15;1736447;82;21008;-69
2022/06/27 00:47:16;;;;;;;6.05;5.00;;;;;;;27.81;82.39;100786.38;1748723;81;21047;-69
2022/06/27 00:49:44;;;;;;;7.37;5.78;;;;;;;27.88;82.01;100788.67;1747511;81;21038;-69
2022/06/27 00:52:13;;;;;;;7.15;5.42;;;;;;;27.90;82.23;100788.00;1753325;82;21547;-69
2022/06/27 00:54:45;;;;;;;11.35;5.50;;;;;;;27.84;81.83;100784.70;1753882;82;21171;-69
2022/06/27 00:57:13;;;;;;;7.37;5.47;;;;;;;28.01;81.55;100787.61;1724722;82;20964;-69
2022/06/27 00:59:41;;;;;;;6.22;5.60;;;;;;;27.88;81.53;100793.97;1741341;82;21043;-69
2022/06/27 01:02:09;;;;;;;7.90;5.20;;;;;;;27.78;82.48;100793.67;1742090;81;20984;-69
2022/06/27 01:04:37;;;;;;;9.73;5.97;;;;;;;27.95;82.05;100798.90;1749367;82;21035;-69
2022/06/27 01:07:09;;;;;;;7.80;5.75;;;;;;;27.88;82.39;100795.29;1751286;81;21496;-69
2022/06/27 01:09:37;;;;;;;9.93;5.42;;;;;;;27.71;83.42;100793.20;1753003;81;21035;-69
2022/06/27 01:12:07;;;;;;;9.90;5.12;;;;;;;27.65;83.90;100793.90;1751058;82;21036;-69
2022/06/27 01:14:34;;;;;;;10.55;5.50;;;;;;;27.43;85.26;100794.16;1741183;81;21510;-69
2022/06/27 01:17:01;;;;;;;8.10;5.20;;;;;;;27.28;87.42;100799.33;1747133;82;20996;-69
2022/06/27 01:19:28;;;;;;;7.28;5.62;;;;;;;27.29;87.67;100792.56;1744323;82;21091;-69
2022/06/27 01:21:57;;;;;;;8.55;5.10;;;;;;;27.52;86.81;100795.78;1750373;82;21586;-68
2022/06/27 01:24:27;;;;;;;7.58;5.35;;;;;;;27.80;84.68;100798.80;1748198;82;21043;-69
2022/06/27 01:26:56;;;;;;;8.38;5.12;;;;;;;27.92;84.33;100799.23;1753667;82;21077;-69
2022/06/27 01:29:23;;;;;;;10.68;5.67;;;;;;;27.92;83.89;100800.55;1742160;82;21037;-69
2022/06/27 01:31:51;;;;;;;6.75;5.28;;;;;;;27.85;84.30;100795.11;1741268;82;21083;-69
2022/06/27 01:34:18;;;;;;;8.68;5.10;;;;;;;28.01;83.30;100806.64;1743274;82;21532;-69
2022/06/27 01:36:47;;;;;;;9.75;4.85;;;;;;;27.96;83.79;100796.09;1743501;82;21082;-69
2022/06/27 01:39:23;;;;;;;7.58;5.30;;;;;;;27.97;83.65;100806.16;1747043;81;21043;-69
2022/06/27 01:41:53;;;;;;;6.08;5.08;;;;;;;28.52;80.43;100795.05;1746465;81;21035;-69
2022/06/27 01:44:25;;;;;;;7.35;4.60;;;;;;;28.46;79.55;100795.22;1747748;82;21024;-69
2022/06/27 01:47:08;;;;;;;5.97;4.97;;;;;;;28.51;79.23;100790.77;1744184;81;21122;-69
2022/06/27 01:49:38;;;;;;;7.47;4.75;;;;;;;28.11;81.46;100801.44;1745219;82;21078;-69
2022/06/27 01:52:08;;;;;;;6.67;4.70;;;;;;;28.41;79.74;100793.63;1748701;82;21038;-69
2022/06/27 01:54:37;;;;;;;5.45;4.95;;;;;;;28.38;79.07;100792.64;1744624;81;21028;-69
2022/06/27 01:57:06;;;;;;;5.47;4.62;;;;;;;28.31;78.81;100804.96;1720778;82;21114;-69
2022/06/27 01:59:36;;;;;;;5.90;5.12;;;;;;;28.18;79.70;100800.23;1744633;82;21023;-69
2022/06/27 02:02:06;;;;;;;6.83;5.00;;;;;;;28.26;79.30;100810.77;1753378;82;21031;-69
2022/06/27 02:04:37;;;;;;;6.20;5.20;;;;;;;28.20;78.65;100814.62;1745102;82;21558;-69
2022/06/27 02:07:05;;;;;;;8.65;5.55;;;;;;;28.06;79.82;100810.90;1751113;82;21074;-69
2022/06/27 02:09:33;;;;;;;10.18;5.47;;;;;;;28.06;77.46;100814.87;1746703;81;21015;-68
2022/06/27 02:12:19;;;;;;;8.55;5.22;;;;;;;28.33;76.76;100810.90;1749701;82;21142;-69
2022/06/27 02:14:52;;;;;;;7.60;5.53;;;;;;;28.30;77.04;100815.20;1745488;82;21062;-69
2022/06/27 02:17:23;;;;;;;8.35;5.60;;;;;;;28.66;75.73;100818.61;1748607;81;21074;-69
2022/06/27 02:19:51;;;;;;;8.38;5.42;;;;;;;28.53;74.59;100816.06;1741253;81;21055;-68
2022/06/27 02:22:18;;;;;;;6.30;5.10;;;;;;;28.61;73.71;100816.98;1747939;82;21066;-68
2022/06/27 02:24:45;;;;;;;7.12;5.37;;;;;;;28.79;73.77;100815.34;1749645;82;21039;-68
2022/06/27 02:27:13;;;;;;;7.30;5.25;;;;;;;28.49;74.28;100822.69;1746055;82;21047;-68
2022/06/27 02:29:41;;;;;;;8.33;5.80;;;;;;;28.48;74.07;100825.00;1752511;81;21034;-68
2022/06/27 02:32:09;;;;;;;6.58;5.10;;;;;;;28.46;73.70;100823.03;1750283;82;21028;-68
2022/06/27 02:34:38;;;;;;;7.58;5.80;;;;;;;28.80;72.69;100827.09;1747461;82;20992;-68
2022/06/27 02:37:07;;;;;;;6.28;4.90;;;;;;;28.37;73.18;100824.92;1751049;82;21175;-68
2022/06/27 02:39:37;;;;;;;8.63;5.47;;;;;;;28.38;73.10;100823.91;1740776;82;21035;-68
2022/06/27 02:42:08;;;;;;;9.55;5.85;;;;;;;28.63;71.96;100818.95;1745431;82;21030;-68
2022/06/27 02:44:35;;;;;;;6.92;5.70;;;;;;;28.52;72.04;100818.89;1746371;82;21016;-68
2022/06/27 02:47:04;;;;;;;13.60;5.70;;;;;;;28.37;71.78;100820.14;1748226;81;21110;-68
2022/06/27 02:49:32;;;;;;;8.50;5.80;;;;;;;28.48;71.75;100817.05;1753727;82;21066;-68
2022/06/27 02:52:28;;;;;;;7.42;6.03;;;;;;;28.75;71.17;100813.55;1721809;82;21051;-68
2022/06/27 02:55:10;;;;;;;8.10;5.83;;;;;;;28.43;71.11;100815.45;1741510;81;21583;-69
2022/06/27 02:57:53;;;;;;;6.78;6.00;;;;;;;28.65;70.39;100807.68;1745703;81;21099;-68
2022/06/27 03:00:21;;;;;;;9.13;5.92;;;;;;;28.64;70.09;100816.14;1740243;82;21000;-68
2022/06/27 03:02:49;;;;;;;10.28;5.78;;;;;;;28.99;69.63;100818.30;1751848;82;21075;-69
2022/06/27 03:05:59;;;;;;;8.35;5.92;;;;;;;28.35;70.70;100818.98;1748152;82;21032;-68
2022/06/27 03:08:43;;;;;;;8.90;5.72;;;;;;;28.70;70.21;100827.34;1743256;81;21095;-69
2022/06/27 03:11:15;;;;;;;8.73;5.78;;;;;;;28.74;70.20;100818.03;1747575;81;21035;-68
2022/06/27 03:13:45;;;;;;;8.55;5.80;;;;;;;28.79;70.01;100812.69;1743739;81;20996;-68
2022/06/27 03:16:14;;;;;;;9.30;5.62;;;;;;;29.01;69.65;100817.63;1753055;82;21538;-68
2022/06/27 03:18:42;;;;;;;7.95;6.08;;;;;;;29.17;68.85;100814.83;1725287;82;21560;-68
2022/06/27 03:21:26;;;;;;;6.35;5.47;;;;;;;29.14;68.20;100820.52;1746424;81;21202;-68
2022/06/27 03:23:56;;;;;;;7.80;5.87;;;;;;;29.01;68.86;100822.41;1742459;81;21059;-69
2022/06/27 03:26:24;;;;;;;9.95;5.87;;;;;;;29.13;69.06;100821.50;1753046;82;21050;-68
2022/06/27 03:28:51;;;;;;;6.62;5.55;;;;;;;29.00;68.58;100822.61;1752397;82;21555;-68
2022/06/27 03:31:18;;;;;;;9.40;6.00;;;;;;;28.92;68.68;100828.30;1742887;82;21453;-69
2022/06/27 03:33:49;;;;;;;7.22;5.55;;;;;;;29.02;68.20;100828.05;1743801;82;21000;-68
2022/06/27 03:36:18;;;;;;;8.73;5.70;;;;;;;29.10;68.45;100830.61;1735809;82;21056;-68
2022/06/27 03:38:45;;;;;;;7.25;6.30;;;;;;;29.01;68.66;100829.55;1734607;82;21036;-68
2022/06/27 03:41:12;;;;;;;7.20;5.80;;;;;;;29.24;67.40;100830.82;1742095;82;21071;-68
2022/06/27 03:43:40;;;;;;;13.08;5.97;;;;;;;29.42;67.10;100831.78;1747226;82;21102;-68
2022/06/27 03:46:08;;;;;;;10.28;6.15;;;;;;;29.12;67.19;100834.45;1747782;80;21091;-68
2022/06/27 03:51:23;;;;;;;9.75;5.80;;;;;;;29.02;67.65;100831.21;1739307;82;21192;-68
2022/06/27 03:53:50;;;;;;;8.35;5.80;;;;;;;29.18;66.57;100828.90;1751992;82;21051;-68
2022/06/27 03:56:17;;;;;;;9.73;6.12;;;;;;;29.21;67.04;100829.36;1750681;82;21063;-68
2022/06/27 03:58:44;;;;;;;7.10;5.80;;;;;;;29.39;66.01;100823.70;1743365;82;21102;-68
2022/06/27 04:01:12;;;;;;;6.12;5.53;;;;;;;29.55;65.38;100824.83;1751488;81;21055;-68
2022/06/27 04:03:39;;;;;;;7.92;5.70;;;;;;;29.39;64.85;100827.68;1743145;82;21063;-68
2022/06/27 04:06:08;;;;;;;11.15;6.05;;;;;;;29.47;65.25;100828.09;1747872;81;21087;-68
2022/06/27 04:08:35;;;;;;;8.18;5.85;;;;;;;29.45;65.44;100822.97;1729496;81;21123;-68
2022/06/27 04:11:02;;;;;;;9.78;6.40;;;;;;;29.75;64.45;100826.44;1741477;82;21058;-68
2022/06/27 04:13:31;;;;;;;10.15;6.33;;;;;;;29.61;64.46;100818.48;1744602;82;21059;-68
2022/06/27 04:16:14;;;;;;;9.00;5.95;;;;;;;29.61;65.00;100824.60;1709829;82;21035;-68
2022/06/27 04:18:55;;;;;;;9.95;6.50;;;;;;;29.57;64.86;100820.67;1708522;82;21075;-68
2022/06/27 04:21:23;;;;;;;7.25;5.80;;;;;;;29.72;64.18;100829.45;1738486;82;21031;-68
2022/06/27 04:23:54;;;;;;;15.20;6.12;;;;;;;29.43;64.83;100824.16;1744720;81;21090;-68
2022/06/27 04:26:24;;;;;;;10.05;6.00;;;;;;;29.47;64.87;100829.42;1750773;82;21121;-67
2022/06/27 04:28:52;;;;;;;8.53;6.30;;;;;;;29.70;64.52;100827.45;1744505;82;21087;-67
2022/06/27 04:31:20;;;;;;;9.18;6.50;;;;;;;29.43;64.14;100836.91;1746363;82;21008;-67
2022/06/27 04:33:47;;;;;;;8.05;5.83;;;;;;;29.67;64.23;100831.00;1749527;82;21070;-68
2022/06/27 04:36:15;;;;;;;8.63;6.08;;;;;;;29.56;63.88;100833.13;1744268;82;21055;-68
2022/06/27 04:38:43;;;;;;;12.85;6.33;;;;;;;29.50;63.08;100820.59;1746022;81;21067;-67
2022/06/27 04:41:16;;;;;;;8.98;6.05;;;;;;;29.50;63.08;100820.59;1747355;81;21059;-67
2022/06/27 04:43:46;;;;;;;10.48;6.05;;;;;;;29.88;62.39;100831.58;1748734;82;21062;-67
2022/06/27 04:46:14;;;;;;;6.70;5.65;;;;;;;30.01;62.46;100830.41;1750955;80;21031;-68
2022/06/27 04:49:00;;;;;;;9.60;6.08;;;;;;;30.02;62.05;100829.39;1745703;82;21519;-67
2022/06/27 04:51:28;;;;;;;8.88;6.10;;;;;;;30.24;61.63;100833.40;1747781;82;21063;-68
2022/06/27 04:53:55;;;;;;;9.58;5.90;;;;;;;30.08;61.75;100831.80;1750447;82;21071;-68
2022/06/27 04:56:23;;;;;;;14.15;7.08;;;;;;;30.26;61.58;100834.03;1748742;82;21035;-68
2022/06/27 04:58:51;;;;;;;8.18;6.10;;;;;;;30.63;60.97;100839.59;1751790;82;21043;-67
2022/06/27 05:01:18;;;;;;;9.88;6.55;;;;;;;30.34;61.56;100833.94;1745625;82;21028;-67
2022/06/27 05:03:50;;;;;;;11.85;6.17;;;;;;;30.27;61.34;100839.16;1751240;82;21512;-67
2022/06/27 05:06:20;;;;;;;11.57;6.15;;;;;;;30.39;60.53;100842.14;1750549;81;21149;-67
2022/06/27 05:08:47;;;;;;;12.63;6.30;;;;;;;30.30;60.19;100836.66;1749735;81;21039;-67
2022/06/27 05:11:17;;;;;;;9.53;5.70;;;;;;;30.30;60.19;100836.66;1749658;82;21086;-67
2022/06/27 05:13:47;;;;;;;11.53;5.97;;;;;;;30.26;60.23;100849.97;1749827;82;21020;-67
2022/06/27 05:16:19;;;;;;;12.60;6.30;;;;;;;30.73;59.70;100855.22;1749369;82;20988;-67
2022/06/27 05:18:46;;;;;;;9.70;6.20;;;;;;;30.61;60.31;100851.44;1747365;82;21071;-67
2022/06/27 05:21:13;;;;;;;8.85;5.78;;;;;;;30.97;59.72;100851.87;1746060;81;21035;-68
2022/06/27 05:23:41;;;;;;;9.40;5.87;;;;;;;31.15;59.55;100850.86;1743386;81;21123;-67
2022/06/27 05:26:08;;;;;;;13.62;6.33;;;;;;;31.20;58.62;100848.94;1748831;82;21539;-69
2022/06/27 05:28:38;;;;;;;9.48;5.37;;;;;;;30.88;57.50;100845.85;1745235;81;21037;-67
2022/06/27 05:31:07;;;;;;;8.70;5.42;;;;;;;30.98;57.60;100850.84;1744864;82;21032;-68
2022/06/27 05:33:35;;;;;;;8.20;5.67;;;;;;;31.04;56.37;100854.05;1750653;81;21031;-67
2022/06/27 05:36:04;;;;;;;9.15;6.00;;;;;;;31.54;56.59;100853.45;1742217;82;21067;-67
2022/06/27 05:38:31;;;;;;;8.10;5.17;;;;;;;31.97;55.91;100850.55;1738089;82;20991;-67
2022/06/27 05:41:00;;;;;;;6.60;5.33;;;;;;;31.52;56.36;100854.16;1743238;82;21098;-68
2022/06/27 05:43:27;;;;;;;7.20;5.70;;;;;;;31.60;55.40;100847.86;1741708;81;21457;-68
2022/06/27 05:45:55;;;;;;;8.33;5.47;;;;;;;31.80;55.43;100855.93;1743278;82;21059;-68
2022/06/27 05:48:30;;;;;;;8.95;5.33;;;;;;;31.62;54.31;100865.27;1746948;82;21869;-68
2022/06/27 05:51:05;;;;;;;11.35;5.40;;;;;;;31.87;53.78;100848.25;1739804;81;21079;-68
2022/06/27 05:53:34;;;;;;;8.05;5.00;;;;;;;31.92;53.72;100845.83;1741591;82;21095;-67
2022/06/27 05:56:02;;;;;;;9.70;5.45;;;;;;;32.02;53.97;100850.00;1745622;82;21047;-68
2022/06/27 05:58:29;;;;;;;7.12;4.97;;;;;;;32.03;53.88;100848.95;1743862;81;21094;-68
2022/06/27 06:00:57;;;;;;;8.98;4.90;;;;;;;32.23;52.85;100845.83;1747050;82;21075;-68
2022/06/27 06:03:25;;;;;;;10.20;4.78;;;;;;;32.06;51.91;100869.36;1744746;82;21036;-68
2022/06/27 06:05:54;;;;;;;10.43;4.55;;;;;;;32.45;51.64;100853.66;1747678;82;21130;-68
2022/06/27 06:08:21;;;;;;;8.65;4.67;;;;;;;32.80;49.96;100854.29;1739806;80;20993;-68
2022/06/27 06:10:50;;;;;;;8.88;4.58;;;;;;;32.60;49.18;100858.28;1720801;82;21535;-68
2022/06/27 06:13:19;;;;;;;7.35;4.00;;;;;;;33.17;49.72;100853.34;1679089;83;21134;-67
2022/06/27 06:15:47;;;;;;;6.30;4.37;;;;;;;32.99;48.17;100847.81;1687445;83;21036;-68
2022/06/27 06:18:17;;;;;;;8.60;4.60;;;;;;;33.15;47.89;100847.92;1721161;83;21137;-67
2022/06/27 06:20:46;;;;;;;6.10;3.85;;;;;;;33.33;47.34;100857.41;1703983;82;21043;-68
2022/06/27 06:23:13;;;;;;;9.88;3.95;;;;;;;33.18;46.95;100850.99;1662875;85;21114;-68
2022/06/27 06:25:42;;;;;;;6.00;4.30;;;;;;;33.24;46.52;100851.49;1714944;82;21204;-67
2022/06/27 06:28:10;;;;;;;9.40;3.70;;;;;;;33.33;46.93;100859.59;1716409;82;21543;-68
2022/06/27 06:30:37;;;;;;;7.10;3.87;;;;;;;33.39;46.40;100859.24;1735889;81;21142;-68
2022/06/27 06:33:08;;;;;;;6.05;3.90;;;;;;;33.06;46.61;100863.30;1682451;84;21088;-68
2022/06/27 06:35:38;;;;;;;8.18;4.00;;;;;;;33.26;46.54;100861.44;1688056;83;21048;-68
2022/06/27 06:38:06;;;;;;;9.10;3.83;;;;;;;33.20;46.15;100866.28;1684321;83;21001;-69
2022/06/27 06:40:34;;;;;;;6.00;4.37;;;;;;;33.29;45.71;100863.70;1671122;84;21515;-68
2022/06/27 06:43:01;;;;;;;6.42;3.72;;;;;;;33.51;46.09;100860.23;1662377;84;21083;-69
2022/06/27 06:45:44;;;;;;;9.40;3.60;;;;;;;33.73;45.54;100860.79;1728983;81;21091;-68
2022/06/27 06:48:14;;;;;;;5.65;3.67;;;;;;;33.60;43.61;100868.00;1703233;83;21052;-68
2022/06/27 06:50:43;;;;;;;9.00;3.25;;;;;;;33.50;44.16;100871.13;1710458;83;21579;-68
2022/06/27 06:53:10;;;;;;;8.13;3.80;;;;;;;33.61;44.24;100862.97;1687729;83;21111;-68
2022/06/27 06:55:37;;;;;;;11.20;3.37;;;;;;;34.13;44.06;100866.45;1741124;81;21100;-69
2022/06/27 06:58:05;;;;;;;7.75;3.62;;;;;;;33.92;43.83;100873.77;1746011;82;21055;-70
2022/06/27 07:00:32;;;;;;;8.03;4.00;;;;;;;34.21;43.49;100876.91;1703530;83;21094;-68
2022/06/27 07:03:01;;;;;;;12.50;3.80;;;;;;;34.03;44.56;100866.91;1703058;82;21095;-69
2022/06/27 07:05:29;;;;;;;5.78;3.37;;;;;;;34.03;44.14;100862.91;1687350;82;21062;-69
2022/06/27 07:07:57;;;;;;;5.50;3.40;;;;;;;33.93;43.48;100870.56;1707756;81;21615;-68
2022/06/27 07:10:25;;;;;;;11.85;3.92;;;;;;;33.85;44.26;100867.62;1689033;83;21528;-69
2022/06/27 07:12:53;;;;;;;5.62;3.60;;;;;;;34.04;43.88;100859.19;1679838;84;21488;-68
2022/06/27 07:15:20;;;;;;;6.10;3.62;;;;;;;34.08;43.69;100872.42;1662061;85;21048;-68
2022/06/27 07:17:51;;;;;;;5.85;3.58;;;;;;;34.32;43.28;100875.39;1720111;81;21072;-68
2022/06/27 07:20:20;;;;;;;7.10;3.50;;;;;;;34.48;43.82;100870.05;1727119;81;21553;-69
2022/06/27 07:22:49;;;;;;;8.65;3.50;;;;;;;34.35;43.53;100878.14;1753637;81;21076;-68
2022/06/27 07:25:17;;;;;;;5.20;3.17;;;;;;;34.40;42.21;100859.63;1724778;82;21559;-68
2022/06/27 07:27:47;;;;;;;6.95;3.33;;;;;;;34.17;42.88;100871.70;1723317;81;21126;-68
2022/06/27 07:30:15;;;;;;;5.85;3.47;;;;;;;34.38;42.37;100878.54;1717965;82;21080;-68
2022/06/27 07:32:43;;;;;;;7.25;3.33;;;;;;;34.57;42.44;100873.26;1706824;83;21478;-68
2022/06/27 07:35:12;;;;;;;5.17;3.00;;;;;;;34.48;42.13;100882.08;1675756;83;21087;-69
2022/06/27 07:37:45;;;;;;;5.70;3.22;;;;;;;34.58;42.36;100868.23;1703624;83;21076;-69
2022/06/27 07:40:11;;;;;;;5.97;3.47;;;;;;;34.59;42.35;100867.17;1706117;83;22512;-69
2022/06/27 07:42:39;;;;;;;5.37;3.33;;;;;;;34.84;42.24;100877.39;1744420;81;21036;-68
2022/06/27 07:45:08;;;;;;;6.03;3.67;;;;;;;34.50;41.49;100879.48;1721303;81;21008;-68
2022/06/27 07:47:36;;;;;;;4.12;3.22;;;;;;;34.49;41.21;100878.35;1710984;81;21158;-68
2022/06/27 07:50:05;;;;;;;7.17;3.50;;;;;;;34.88;42.21;100870.56;1723968;81;21032;-69
2022/06/27 07:53:11;;;;;;;5.03;3.20;;;;;;;34.41;41.30;100865.25;1730561;82;21507;-69
2022/06/27 07:55:02;;;;;;;6.75;3.08;;;;;;;34.87;40.54;100868.10;1737476;81;21033;-68
2022/06/27 07:57:31;;;;;;;4.42;3.37;;;;;;;34.39;40.71;100868.66;1716299;81;21526;-68
2022/06/27 08:00:01;;;;;;;6.87;3.40;;;;;;;34.44;40.66;100878.20;1724176;82;21086;-69
2022/06/27 08:02:31;;;;;;;6.87;3.10;;;;;;;35.03;40.49;100861.38;1691028;83;21017;-69
2022/06/27 08:04:59;;;;;;;6.35;3.12;;;;;;;35.16;41.61;100855.92;1720044;81;21130;-68
2022/06/27 08:07:26;;;;;;;4.00;3.10;;;;;;;34.81;40.98;100863.63;1732657;81;21059;-68
2022/06/27 08:09:55;;;;;;;10.43;3.58;;;;;;;34.86;40.70;100866.48;1727328;81;21055;-69
2022/06/27 08:12:24;;;;;;;4.35;3.20;;;;;;;34.85;40.48;100868.31;1724362;81;21028;-69
2022/06/27 08:14:52;;;;;;;5.80;3.45;;;;;;;34.96;40.93;100867.29;1718663;82;21053;-68
2022/06/27 08:17:19;;;;;;;4.83;2.83;;;;;;;35.13;40.64;100867.55;1728915;81;21539;-68
2022/06/27 08:19:46;;;;;;;5.28;3.12;;;;;;;35.34;41.54;100866.32;1710572;82;21076;-69
2022/06/27 08:22:14;;;;;;;8.38;3.25;;;;;;;35.18;40.80;100859.69;1723161;81;21570;-69
2022/06/27 08:24:42;;;;;;;5.95;3.12;;;;;;;35.12;40.83;100877.45;1713199;81;21100;-69
2022/06/27 08:27:09;;;;;;;9.40;3.05;;;;;;;35.22;42.06;100868.42;1716168;81;21009;-68
2022/06/27 08:29:37;;;;;;;9.80;3.42;;;;;;;35.16;40.76;100877.83;1715538;81;21472;-68
2022/06/27 08:32:05;;;;;;;5.72;3.17;;;;;;;34.80;40.38;100864.16;1722748;81;21103;-69
2022/06/27 08:34:33;;;;;;;5.00;2.87;;;;;;;35.44;40.74;100864.75;1706700;83;21576;-69
2022/06/27 08:37:02;;;;;;;5.17;3.10;;;;;;;35.45;41.02;100864.25;1689710;83;21064;-68
2022/06/27 08:39:29;;;;;;;9.15;3.67;;;;;;;35.46;40.33;100850.64;1659710;85;21095;-68
2022/06/27 08:41:58;;;;;;;5.28;3.27;;;;;;;35.61;40.67;100864.97;1669221;84;21052;-68
2022/06/27 08:44:29;;;;;;;6.70;3.25;;;;;;;35.17;40.36;100867.44;1713090;82;21562;-69
2022/06/27 08:46:57;;;;;;;3.55;2.75;;;;;;;35.76;40.66;100865.94;1726876;81;21101;-68
2022/06/27 08:49:24;;;;;;;9.33;3.40;;;;;;;35.56;40.36;100870.17;1721232;82;21575;-68
2022/06/27 08:51:51;;;;;;;6.15;3.27;;;;;;;35.85;40.35;100877.15;1718981;82;21074;-69
2022/06/27 08:54:18;;;;;;;5.58;3.42;;;;;;;36.37;39.94;100872.11;1714955;81;21094;-69
2022/06/27 08:56:45;;;;;;;4.60;3.25;;;;;;;36.42;39.76;100874.13;1691194;84;21076;-69
2022/06/27 08:59:13;;;;;;;5.95;3.08;;;;;;;36.17;40.40;100873.74;1684418;85;21539;-69
2022/06/27 09:01:40;;;;;;;6.20;3.05;;;;;;;35.88;39.85;100865.99;1679899;83;21067;-69
2022/06/27 09:04:10;;;;;;;6.15;3.08;;;;;;;35.67;40.03;100864.63;1687567;84;21508;-70
2022/06/27 09:06:48;;;;;;;5.72;3.02;;;;;;;35.87;39.85;100863.84;1669577;84;21056;-69
2022/06/27 09:09:16;;;;;;;7.33;3.12;;;;;;;36.46;39.92;100864.03;1683415;84;21606;-69
2022/06/27 09:11:46;;;;;;;8.38;3.50;;;;;;;35.81;40.26;100862.58;1688241;84;21410;-69
2022/06/27 09:14:35;;;;;;;6.00;3.42;;;;;;;35.63;40.08;100860.74;1671225;83;21054;-69
2022/06/27 09:17:09;;;;;;;4.47;3.00;;;;;;;35.66;39.92;100866.47;1715154;81;21047;-69
2022/06/27 09:19:54;;;;;;;5.20;3.30;;;;;;;35.53;40.39;100871.98;1735506;81;21133;-69
2022/06/27 09:22:26;;;;;;;4.80;2.92;;;;;;;35.58;39.91;100876.65;1716794;81;21020;-69
2022/06/27 09:25:04;;;;;;;6.10;3.58;;;;;;;35.58;39.54;100864.07;1725056;81;21081;-69
2022/06/27 09:27:50;;;;;;;8.08;3.42;;;;;;;35.78;40.43;100865.19;1712335;82;21000;-69
2022/06/27 09:30:23;;;;;;;6.47;3.25;;;;;;;36.26;40.72;100871.05;1696338;83;21520;-69
2022/06/27 09:33:01;;;;;;;5.75;3.40;;;;;;;36.01;39.37;100876.55;1706355;82;21075;-69
2022/06/27 09:35:35;;;;;;;11.63;3.98;;;;;;;36.32;40.01;100867.14;1684908;83;21003;-69
2022/06/27 09:38:10;;;;;;;6.03;3.12;;;;;;;35.76;38.99;100877.19;1720851;81;21039;-69
2022/06/27 09:40:40;;;;;;;6.45;3.33;;;;;;;35.98;38.94;100862.25;1733119;81;21005;-69
2022/06/27 09:43:09;;;;;;;8.38;3.22;;;;;;;36.20;39.42;100862.58;1753498;82;21060;-70
2022/06/27 09:45:37;;;;;;;4.80;3.35;;;;;;;35.91;39.33;100858.86;1753542;80;21128;-70
2022/06/27 09:48:06;;;;;;;6.30;3.10;;;;;;;36.43;39.00;100852.41;1733003;81;21000;-70
2022/06/27 09:50:39;;;;;;;5.37;3.55;;;;;;;36.74;38.65;100846.98;1729197;81;21057;-70
2022/06/27 09:53:07;;;;;;;7.47;3.10;;;;;;;36.25;37.55;100858.67;1717061;81;21048;-69
2022/06/27 09:55:35;;;;;;;4.78;2.90;;;;;;;36.41;37.44;100857.19;1719384;81;21052;-69
2022/06/27 09:58:03;;;;;;;5.25;3.10;;;;;;;36.57;37.88;100849.00;1715274;82;21092;-69
2022/06/27 10:00:32;;;;;;;6.62;3.05;;;;;;;36.18;38.15;100847.25;1744463;82;21021;-69
2022/06/27 10:03:00;;;;;;;10.00;3.30;;;;;;;36.08;37.83;100842.41;1732838;81;21079;-69
2022/06/27 10:05:27;;;;;;;4.87;3.20;;;;;;;35.77;38.50;100831.43;1711582;84;21020;-69
2022/06/27 10:08:04;;;;;;;5.80;3.00;;;;;;;35.96;38.08;100842.09;1726544;81;21075;-69
2022/06/27 10:11:10;;;;;;;9.60;3.10;;;;;;;36.16;38.31;100835.14;1718576;81;21535;-69
2022/06/27 10:13:44;;;;;;;3.83;2.80;;;;;;;36.23;38.20;100835.30;1739878;82;21017;-69
2022/06/27 10:16:15;;;;;;;5.17;3.10;;;;;;;36.12;37.65;100833.40;1721525;81;21004;-69
2022/06/27 10:19:03;;;;;;;7.97;3.12;;;;;;;36.44;38.15;100827.25;1717345;82;21052;-69
2022/06/27 10:21:34;;;;;;;26.93;17.42;;;;;;;36.24;37.25;100832.12;1715236;81;21079;-69
2022/06/27 10:24:25;;;;;;;12.20;6.03;;;;;;;36.55;37.77;100824.28;1703791;83;21019;-69
2022/06/27 10:26:58;;;;;;;7.03;4.95;;;;;;;36.59;36.41;100824.10;1710982;82;21012;-70
2022/06/27 10:29:39;;;;;;;4.87;2.62;;;;;;;37.21;36.44;100815.59;1687587;84;21177;-70
2022/06/27 10:32:07;;;;;;;4.72;3.67;;;;;;;37.09;36.00;100826.32;1675971;84;21516;-69
2022/06/27 10:34:48;;;;;;;3.37;3.02;;;;;;;37.13;36.04;100825.86;1666813;83;21523;-70
2022/06/27 10:37:27;;;;;;;4.75;3.42;;;;;;;37.40;36.57;100820.80;1665437;85;21540;-69
2022/06/27 10:40:22;;;;;;;7.05;2.87;;;;;;;37.87;35.00;100832.70;1701642;83;21103;-70
2022/06/27 10:42:56;;;;;;;7.08;2.75;;;;;;;37.10;34.90;100834.64;1724470;82;21048;-70
2022/06/27 10:45:28;;;;;;;11.45;3.27;;;;;;;36.93;35.20;100827.58;1709445;82;21051;-70
2022/06/27 10:48:01;;;;;;;8.10;2.80;;;;;;;36.94;36.14;100829.20;1749168;81;21025;-69
2022/06/27 10:50:41;;;;;;;4.90;3.30;;;;;;;37.30;33.68;100842.88;1724630;81;21540;-69
2022/06/27 10:53:23;;;;;;;5.30;3.00;;;;;;;37.32;35.39;100824.66;1710021;81;21176;-69
2022/06/27 10:55:52;;;;;;;5.37;3.05;;;;;;;37.24;35.62;100825.03;1719999;81;21587;-69
2022/06/27 10:58:29;;;;;;;8.18;3.30;;;;;;;37.73;35.58;100826.81;1733069;82;21600;-69
2022/06/27 11:01:16;;;;;;;4.08;3.20;;;;;;;37.86;33.34;100829.75;1728140;81;21045;-69
2022/06/27 11:03:43;;;;;;;6.78;3.12;;;;;;;37.77;33.40;100831.98;1745140;81;21092;-70
2022/06/27 11:06:13;;;;;;;4.70;3.12;;;;;;;37.68;35.34;100815.45;1744286;81;21544;-69
2022/06/27 11:08:43;;;;;;;4.65;2.70;;;;;;;38.08;35.01;100819.14;1724117;81;21138;-70
2022/06/27 11:11:30;;;;;;;4.85;2.80;;;;;;;37.33;35.22;100812.05;1717374;81;21519;-70
2022/06/27 11:14:00;;;;;;;7.95;3.20;;;;;;;37.23;35.60;100793.89;1717880;81;21015;-69
2022/06/27 11:16:30;;;;;;;7.33;2.83;;;;;;;37.61;35.06;100814.77;1708187;83;21043;-69
2022/06/27 11:19:02;;;;;;;5.97;3.00;;;;;;;38.28;33.94;100807.88;1752566;81;21607;-70
2022/06/27 11:21:38;;;;;;;7.30;3.30;;;;;;;38.25;33.51;100812.42;1719173;82;21094;-69
2022/06/27 11:24:09;;;;;;;9.00;3.50;;;;;;;37.92;34.35;100817.19;1721876;82;21067;-69
2022/06/27 11:26:46;;;;;;;5.80;2.75;;;;;;;37.74;34.30;100812.34;1731166;81;21036;-70
2022/06/27 11:32:12;;;;;;;7.60;3.87;;;;;;;38.31;33.63;100803.91;1721157;81;21043;-69
2022/06/27 11:34:48;;;;;;;7.70;3.10;;;;;;;37.74;33.29;100814.22;1724867;81;21172;-70
2022/06/27 11:37:19;;;;;;;7.45;4.58;;;;;;;37.22;33.52;100809.16;1693628;82;21029;-70
2022/06/27 11:40:05;;;;;;;6.15;3.00;;;;;;;37.43;33.41;100809.55;1752706;81;21127;-71
2022/06/27 11:42:36;;;;;;;5.42;3.30;;;;;;;37.99;33.43;100808.47;1740315;81;21063;-70
2022/06/27 11:45:13;;;;;;;6.22;2.90;;;;;;;37.84;33.70;100808.48;1705358;81;21064;-69